EIDL

Donegal Airport

Donegal, Ireland
METAR EIDL 180830Z 17011KT CAVOK 06/04 Q1025
Observed Flight Rules
Dec-18 @ 08:30 UTC (33 minutes ago) Visual Flight Rules
Wind Visibility Clouds
170° at 11 knots 10,000+ meters
  • Clear skies
Temperatures Readings
Current 6°C / 43°F
Dewpoint 4°C / 39°F
Humidity 87%
Altimeter 30.27" Hg
Pressure 1025 hPa
Elevation 9
METAR EIDL 180830Z 17011KT CAVOK 06/04 Q1025
Observed Flight Rules
Dec-18 @ 08:30 UTC
(33 minutes ago)
VFR
Wind Visibility
170° at 11 knots 10,000+ meters
Clouds
  • Clear skies
Temperature Dewpoint
6°C / 43°F 4°C / 39°F
Humidity Altimeter Pressure
87% 30.27" Hg 1025 hPa